18 août 2022

Temps Code Temps Temp. Vue Base cloud Vent METAR/SPECI
21:20
V
16 °C 10 km+ - 330° 330° 3 kt METAR EDWE 181920Z AUTO 33003KT 9999 // NCD 16/14 Q1013
20:50
V
17 °C 10 km+ - 340° 340° 3 kt METAR EDWE 181850Z AUTO 34003KT 9999 // NCD 17/14 Q1013
05:50
M
19 °C 10 km+ 2.900 ft 300° 300° 4 kt METAR EDWE 180350Z AUTO 30004KT 270V330 9999 // SCT018/// OVC029/// 19/18 Q1011
05:20
M
18 °C 10 km+ 1.700 ft 300° 300° 3 kt METAR EDWE 180320Z AUTO 30003KT 9999 // BKN017/// OVC027/// 18/18 Q1011
04:50
M
18 °C 10 km+ 1.500 ft 350° 350° 4 kt METAR EDWE 180250Z AUTO 35004KT 9999 // FEW010/// BKN015/// OVC026/// 18/18 Q1011
04:20
M
18 °C 10 km+ 2.700 ft 320° 320° 4 kt METAR EDWE 180220Z AUTO 32004KT 9999 // SCT015/// OVC027/// 18/17 Q1011
03:50
M
18 °C 10 km+ 2.600 ft 360° 360° 5 kt METAR EDWE 180150Z AUTO 36005KT 9999 // FEW009/// SCT013/// BKN026/// 18/17 Q1011
03:20
V
18 °C 10 km+ - 340° 340° 5 kt METAR EDWE 180120Z AUTO 34005KT 9999 // SCT012/// 18/17 Q1011
02:50
M
18 °C 10 km+ 1.300 ft 350° 350° 5 kt METAR EDWE 180050Z AUTO 35005KT 9999 // BKN013/// BKN023/// 18/17 Q1011
02:20
M
18 °C 10 km+ 2.300 ft 350° 350° 7 kt METAR EDWE 180020Z AUTO 35007KT 9999 // FEW019/// BKN023/// BKN027/// 18/17 Q1011
01:50
M
18 °C 10 km+ 2.200 ft 360° 360° 6 kt METAR EDWE 172350Z AUTO 36006KT 9999 // BKN022/// BKN045/// BKN150/// 18/17 Q1011
01:20
M
19 °C 10 km+ 2.200 ft 010° 010° 11 kt METAR EDWE 172320Z AUTO 01011KT 9999 // SCT018/// BKN022/// OVC043/// 19/17 Q1011
00:50
M
19 °C 10 km+ 1.400 ft 330° 330° 12 kt METAR EDWE 172250Z AUTO 33012KT 290V350 9999 // OVC014/// 19/17 Q1012
00:20
M
19 °C 10 km+ 1.100 ft 320° 320° 8 kt METAR EDWE 172220Z AUTO 32008KT 9999 // BKN011/// OVC023/// 19/17 Q1012

17 août 2022

Temps Code Temps Temp. Vue Base cloud Vent METAR/SPECI
23:50
V
18 °C 10 km+ 13.000 ft 340° 340° 7 kt METAR EDWE 172150Z AUTO 34007KT 300V360 9999 // FEW012/// BKN130/// 18/17 Q1011
23:20
V
18 °C 10 km+ 13.000 ft 020° 020° 8 kt METAR EDWE 172120Z AUTO 02008KT 9999 // FEW062/// SCT083/// BKN130/// 18/17 Q1011
22:50
V
18 °C 10 km+ 6.100 ft 020° 020° 8 kt METAR EDWE 172050Z AUTO 02008KT 9999 // BKN061/// BKN084/// OVC130/// 18/17 Q1011
22:20
V
18 °C 10 km+ 6.500 ft 360° 360° 8 kt METAR EDWE 172020Z AUTO 36008KT 9999 // BKN065/// OVC110/// 18/17 Q1011
21:50
V
18 °C 10 km+ 13.000 ft 020° 020° 11 kt METAR EDWE 171950Z AUTO 02011KT 9999 // SCT090/// BKN130/// 18/17 Q1011
21:20
V
18 °C 10 km+ 9.300 ft 360° 360° 8 kt METAR EDWE 171920Z AUTO 36008KT 9999 // FEW080/// BKN093/// OVC110/// 18/17 Q1011
20:50
V
18 °C 10 km+ 11.000 ft 010° 010° 7 kt METAR EDWE 171850Z AUTO 01007KT 9999 // FEW079/// OVC110/// 18/16 Q1011
10:20
I
19 °C 1,7 km 7.800 ft 350° 350° 6 kt METAR EDWE 170820Z AUTO 35006KT 1700 FEW005/// BKN078/// OVC091/// 19/19 Q1012
09:50
I
19 °C 1,8 km 6.800 ft 050° 050° 3 kt METAR EDWE 170750Z AUTO 05003KT 010V070 1800 FEW004/// BKN068/// OVC089/// 19/18 Q1012
09:20
I
18 °C 2,4 km 9.800 ft 090° 090° 3 kt METAR EDWE 170720Z AUTO 09003KT 040V160 2400 FEW026/// OVC098/// 18/18 Q1012
06:20
L
15 °C 300 m - 040° 040° 3 kt METAR EDWE 170420Z AUTO 04003KT 010V070 0300 R25/0350N // VV/// 15/15 Q1011
05:50
L
15 °C 250 m - 030° 030° 3 kt METAR EDWE 170350Z AUTO 03003KT 0250 R25/0350U // VV/// 15/15 Q1011
05:20
L
16 °C 250 m - Var Var 2 kt METAR EDWE 170320Z AUTO VRB02KT 0250 R25/0300N // VV/// 16/15 Q1011
04:50
L
15 °C 300 m - Var Var 1 kt METAR EDWE 170250Z AUTO VRB01KT 0300 R25/0350N // VV/// 15/15 Q1011
04:20
L
15 °C 250 m - 070° 070° 2 kt METAR EDWE 170220Z AUTO 07002KT 0250 R25/0275N // VV/// 15/15 Q1011
03:50
L
15 °C 200 m - 040° 040° 2 kt METAR EDWE 170150Z AUTO 04002KT 0200 R25/0375U // VV/// 15/15 Q1011
03:20
L
16 °C 200 m - Var Var 1 kt METAR EDWE 170120Z AUTO VRB01KT 0200 R25/0250N // VV/// 16/15 Q1011
02:50
L
15 °C 150 m - 020° 020° 2 kt METAR EDWE 170050Z AUTO 02002KT 0150 R25/0375N // VV/// 15/15 Q1011
02:20
L
16 °C 200 m - 040° 040° 1 kt METAR EDWE 170020Z AUTO 04001KT 0200 R25/0225N // VV/// 16/16 Q1011
01:50
L
17 °C 550 m - 110° 110° 2 kt METAR EDWE 162350Z AUTO 11002KT 0550 R25/1000U // FEW008/// 17/17 Q1011
01:20
L
17 °C 450 m 16.000 ft 080° 080° 3 kt METAR EDWE 162320Z AUTO 08003KT 0450 R25/P2000N // SCT007/// BKN160/// 17/17 Q1011
00:50
L
18 °C 1,4 km 15.000 ft Var Var 1 kt METAR EDWE 162250Z AUTO VRB01KT 1400 R25/1500U // BKN150/// 18/17 Q1011
00:20
L
17 °C 350 m 17.000 ft Var Var 1 kt METAR EDWE 162220Z AUTO VRB01KT 0350 R25/0450N // FEW009/// BKN170/// 17/17 Q1011

16 août 2022

Temps Code Temps Temp. Vue Base cloud Vent METAR/SPECI
23:50
L
18 °C 1 km 17.000 ft 090° 090° 1 kt METAR EDWE 162150Z AUTO 09001KT 1000 R25/P2000N // BKN170/// 18/17 Q1011
23:20
L
19 °C 1,3 km 16.000 ft Var Var 1 kt METAR EDWE 162120Z AUTO VRB01KT 1300 R25/1400U // BKN160/// BKN180/// 19/18 Q1011
22:50
L
18 °C 500 m 16.000 ft Var Var 2 kt METAR EDWE 162050Z AUTO VRB02KT 0500 R25/0400D // BKN160/// 18/17 Q1011
22:20
L
19 °C 350 m 17.000 ft 340° 340° 2 kt METAR EDWE 162020Z AUTO 34002KT 0350 R25/0400D // BKN170/// 19/18 Q1010
21:50
M
19 °C 5 km 15.000 ft Var Var 2 kt METAR EDWE 161950Z AUTO VRB02KT 5000 // BKN150/// BKN170/// 19/18 Q1010
21:20
M
20 °C 7 km 16.000 ft 330° 330° 6 kt METAR EDWE 161920Z AUTO 33006KT 7000 // BKN160/// 20/18 Q1010
20:50
V
20 °C 9 km - 320° 320° 7 kt METAR EDWE 161850Z AUTO 32007KT 9000 // FEW150/// SCT240/// 20/19 Q1009
Données plus anciennes

Nous et des tiers suivons ton comportement sur Internet sur notre site Web à l'aide de cookies. Si tu continues, nous supposons que tu acceptes notre politique en matière de cookies. Apprendre plus